Saint-Antoine-Des-Laurentides, Canada
Current Conditions -  °F | °C
As of 4:00 AM on Monday 20 Oct 2014 (Local Time) from CYMX Reporting Station
Broken Clouds Broken Clouds  
Wind Chill: 32°   Ceiling: 3700
Heat Index: 36°   Visibility: 25mi
Dew Point: 23°   Wind: 5mph
Humidity: 60%   Direction: 310°NW
Pressure: 29.98"   Gusts: NA
Location:  45.77°N, 73.98°W
Report Text: CYMX 200800Z 31004KT 25SM BKN037 02/M05 A2998 RMK SC7 SLP156
Loading
Personal Weather Stations






























Interactive Weather Map
Tropical Storm Tracking
New forecast layout! Learn more

10-Day Weather Forecast

Advertisements
Track Severe Weather on mobile